Terminal Aerodrome Forecast
Issued by NWS

Home | Current Version | Previous Version | Text Only | Print | Product List | Glossary On
Versions: 1 2 3 4 5 6 7 8 9 10 11 12 13 14 15 16 17 18 19 20 21 22
000
FTUS45 KRIW 291500 AAB
TAFJAC
TAF AMD
KJAC 291515Z 2915/3012 VRB04KT P6SM OVC006
     FM291700 VRB05KT P6SM SCT040 BKN060
     FM292100 VRB05KT P6SM VCSH SCT045 BKN070
     FM300100 VRB05KT P6SM BKN060
     FM300600 36006KT P6SM VCFG SCT004 SCT060
      AMD LTD TO CLD VIS AND WIND=

USA.gov is the U.S. government's official web portal to all federal, state and local government web resources and services.